sensor_id;sensor_type;location;lat;lon;timestamp;temperature;humidity
71978;DHT22;59848;48.158;11.512;2022-08-19T00:01:23;19.10;83.90
71978;DHT22;59848;48.158;11.512;2022-08-19T00:03:50;19.20;83.80
71978;DHT22;59848;48.158;11.512;2022-08-19T00:06:15;19.20;83.70
71978;DHT22;59848;48.158;11.512;2022-08-19T00:08:41;19.20;83.70
71978;DHT22;59848;48.158;11.512;2022-08-19T00:11:06;19.20;83.70
71978;DHT22;59848;48.158;11.512;2022-08-19T00:13:33;19.20;83.60
71978;DHT22;59848;48.158;11.512;2022-08-19T00:15:59;19.30;83.60
71978;DHT22;59848;48.158;11.512;2022-08-19T00:18:25;19.30;83.50
71978;DHT22;59848;48.158;11.512;2022-08-19T00:20:51;19.30;83.50
71978;DHT22;59848;48.158;11.512;2022-08-19T00:23:17;19.20;83.30
71978;DHT22;59848;48.158;11.512;2022-08-19T00:25:42;19.20;83.30
71978;DHT22;59848;48.158;11.512;2022-08-19T00:28:08;19.30;83.30
71978;DHT22;59848;48.158;11.512;2022-08-19T00:30:33;19.20;83.70
71978;DHT22;59848;48.158;11.512;2022-08-19T00:32:59;19.20;83.70
71978;DHT22;59848;48.158;11.512;2022-08-19T00:35:25;19.20;83.50
71978;DHT22;59848;48.158;11.512;2022-08-19T00:37:53;19.20;83.60
71978;DHT22;59848;48.158;11.512;2022-08-19T00:40:18;19.20;83.50
71978;DHT22;59848;48.158;11.512;2022-08-19T00:42:44;19.20;83.90
71978;DHT22;59848;48.158;11.512;2022-08-19T00:45:18;19.20;84.00
71978;DHT22;59848;48.158;11.512;2022-08-19T00:47:45;19.20;83.80
71978;DHT22;59848;48.158;11.512;2022-08-19T00:50:13;19.20;83.70
71978;DHT22;59848;48.158;11.512;2022-08-19T00:52:43;19.20;83.70
71978;DHT22;59848;48.158;11.512;2022-08-19T00:55:13;19.30;83.50
71978;DHT22;59848;48.158;11.512;2022-08-19T00:57:43;19.30;83.30
71978;DHT22;59848;48.158;11.512;2022-08-19T01:00:13;19.30;83.30
71978;DHT22;59848;48.158;11.512;2022-08-19T01:02:41;19.20;83.80
71978;DHT22;59848;48.158;11.512;2022-08-19T01:05:13;19.10;84.00
71978;DHT22;59848;48.158;11.512;2022-08-19T01:07:40;19.10;84.00
71978;DHT22;59848;48.158;11.512;2022-08-19T01:10:10;19.10;84.00
71978;DHT22;59848;48.158;11.512;2022-08-19T01:12:38;19.10;84.00
71978;DHT22;59848;48.158;11.512;2022-08-19T01:15:06;19.10;84.00
71978;DHT22;59848;48.158;11.512;2022-08-19T01:17:33;19.10;83.70
71978;DHT22;59848;48.158;11.512;2022-08-19T01:19:59;19.20;83.80
71978;DHT22;59848;48.158;11.512;2022-08-19T01:24:53;19.00;84.10
71978;DHT22;59848;48.158;11.512;2022-08-19T01:27:19;18.90;84.20
71978;DHT22;59848;48.158;11.512;2022-08-19T01:29:45;19.00;84.10
71978;DHT22;59848;48.158;11.512;2022-08-19T01:32:13;19.00;84.00
71978;DHT22;59848;48.158;11.512;2022-08-19T01:34:40;19.10;83.90
71978;DHT22;59848;48.158;11.512;2022-08-19T01:37:09;19.10;83.90
71978;DHT22;59848;48.158;11.512;2022-08-19T01:39:38;19.10;83.90
71978;DHT22;59848;48.158;11.512;2022-08-19T01:42:04;19.00;84.20
71978;DHT22;59848;48.158;11.512;2022-08-19T01:44:31;19.20;83.90
71978;DHT22;59848;48.158;11.512;2022-08-19T01:46:56;19.20;83.50
71978;DHT22;59848;48.158;11.512;2022-08-19T01:49:24;19.20;83.20
71978;DHT22;59848;48.158;11.512;2022-08-19T01:51:51;19.20;83.50
71978;DHT22;59848;48.158;11.512;2022-08-19T01:54:18;19.20;83.10
71978;DHT22;59848;48.158;11.512;2022-08-19T01:56:44;19.30;83.10
71978;DHT22;59848;48.158;11.512;2022-08-19T01:59:15;19.20;83.10
71978;DHT22;59848;48.158;11.512;2022-08-19T02:01:41;19.30;82.90
71978;DHT22;59848;48.158;11.512;2022-08-19T02:04:07;19.40;82.70
71978;DHT22;59848;48.158;11.512;2022-08-19T02:06:32;19.30;82.40
71978;DHT22;59848;48.158;11.512;2022-08-19T02:08:58;19.30;82.70
71978;DHT22;59848;48.158;11.512;2022-08-19T02:11:27;19.30;82.50
71978;DHT22;59848;48.158;11.512;2022-08-19T02:13:54;19.30;82.70
71978;DHT22;59848;48.158;11.512;2022-08-19T02:16:20;19.40;82.50
71978;DHT22;59848;48.158;11.512;2022-08-19T02:18:46;19.40;82.40
71978;DHT22;59848;48.158;11.512;2022-08-19T02:21:14;19.30;82.40
71978;DHT22;59848;48.158;11.512;2022-08-19T02:23:41;19.40;82.30
71978;DHT22;59848;48.158;11.512;2022-08-19T02:26:06;19.40;82.20
71978;DHT22;59848;48.158;11.512;2022-08-19T02:28:32;19.40;82.30
71978;DHT22;59848;48.158;11.512;2022-08-19T02:30:59;19.30;82.40
71978;DHT22;59848;48.158;11.512;2022-08-19T02:33:26;19.40;82.50
71978;DHT22;59848;48.158;11.512;2022-08-19T02:35:51;19.40;82.40
71978;DHT22;59848;48.158;11.512;2022-08-19T02:38:17;19.50;82.20
71978;DHT22;59848;48.158;11.512;2022-08-19T02:40:57;19.40;82.10
71978;DHT22;59848;48.158;11.512;2022-08-19T02:43:24;19.40;82.30
71978;DHT22;59848;48.158;11.512;2022-08-19T02:45:50;19.40;82.40
71978;DHT22;59848;48.158;11.512;2022-08-19T02:48:20;19.30;82.60
71978;DHT22;59848;48.158;11.512;2022-08-19T02:50:47;19.20;83.10
71978;DHT22;59848;48.158;11.512;2022-08-19T02:53:16;19.30;82.80
71978;DHT22;59848;48.158;11.512;2022-08-19T02:55:46;19.30;82.40
71978;DHT22;59848;48.158;11.512;2022-08-19T02:58:12;19.30;82.40
71978;DHT22;59848;48.158;11.512;2022-08-19T03:00:49;19.30;82.50
71978;DHT22;59848;48.158;11.512;2022-08-19T03:03:15;19.20;82.60
71978;DHT22;59848;48.158;11.512;2022-08-19T03:05:41;19.30;82.40
71978;DHT22;59848;48.158;11.512;2022-08-19T03:08:08;19.20;82.70
71978;DHT22;59848;48.158;11.512;2022-08-19T03:10:43;19.30;82.40
71978;DHT22;59848;48.158;11.512;2022-08-19T03:13:13;19.20;82.70
71978;DHT22;59848;48.158;11.512;2022-08-19T03:15:40;19.30;82.20
71978;DHT22;59848;48.158;11.512;2022-08-19T03:18:06;19.30;82.10
71978;DHT22;59848;48.158;11.512;2022-08-19T03:20:32;19.30;82.20
71978;DHT22;59848;48.158;11.512;2022-08-19T03:22:58;19.40;82.00
71978;DHT22;59848;48.158;11.512;2022-08-19T03:25:23;19.40;81.90
71978;DHT22;59848;48.158;11.512;2022-08-19T03:27:49;19.30;82.40
71978;DHT22;59848;48.158;11.512;2022-08-19T03:30:15;19.40;82.00
71978;DHT22;59848;48.158;11.512;2022-08-19T03:32:40;19.30;82.10
71978;DHT22;59848;48.158;11.512;2022-08-19T03:35:06;19.20;82.20
71978;DHT22;59848;48.158;11.512;2022-08-19T03:37:32;19.30;81.90
71978;DHT22;59848;48.158;11.512;2022-08-19T03:39:57;19.30;82.00
71978;DHT22;59848;48.158;11.512;2022-08-19T03:42:23;19.30;82.20
71978;DHT22;59848;48.158;11.512;2022-08-19T03:44:48;19.40;81.80
71978;DHT22;59848;48.158;11.512;2022-08-19T03:47:14;19.30;82.00
71978;DHT22;59848;48.158;11.512;2022-08-19T03:49:40;19.50;81.80
71978;DHT22;59848;48.158;11.512;2022-08-19T03:52:06;19.40;81.90
71978;DHT22;59848;48.158;11.512;2022-08-19T03:54:32;19.40;81.70
71978;DHT22;59848;48.158;11.512;2022-08-19T03:56:58;19.40;81.60
71978;DHT22;59848;48.158;11.512;2022-08-19T03:59:30;19.30;82.20
71978;DHT22;59848;48.158;11.512;2022-08-19T04:01:58;19.20;82.30
71978;DHT22;59848;48.158;11.512;2022-08-19T04:04:24;19.30;82.30
71978;DHT22;59848;48.158;11.512;2022-08-19T04:06:51;19.20;82.40
71978;DHT22;59848;48.158;11.512;2022-08-19T04:09:18;19.20;82.70
71978;DHT22;59848;48.158;11.512;2022-08-19T04:11:50;19.30;82.30
71978;DHT22;59848;48.158;11.512;2022-08-19T04:14:21;19.40;82.00
71978;DHT22;59848;48.158;11.512;2022-08-19T04:16:48;19.30;82.20
71978;DHT22;59848;48.158;11.512;2022-08-19T04:19:15;19.30;82.30
71978;DHT22;59848;48.158;11.512;2022-08-19T04:21:44;19.40;82.40
71978;DHT22;59848;48.158;11.512;2022-08-19T04:24:10;19.20;82.40
71978;DHT22;59848;48.158;11.512;2022-08-19T04:26:36;19.20;82.90
71978;DHT22;59848;48.158;11.512;2022-08-19T04:29:07;19.20;83.10
71978;DHT22;59848;48.158;11.512;2022-08-19T04:31:33;19.30;82.60
71978;DHT22;59848;48.158;11.512;2022-08-19T04:34:04;19.40;82.50
71978;DHT22;59848;48.158;11.512;2022-08-19T04:36:33;19.40;82.40
71978;DHT22;59848;48.158;11.512;2022-08-19T04:39:02;19.40;82.50
71978;DHT22;59848;48.158;11.512;2022-08-19T04:41:28;19.40;82.40
71978;DHT22;59848;48.158;11.512;2022-08-19T04:44:13;19.30;82.50
71978;DHT22;59848;48.158;11.512;2022-08-19T04:46:39;19.30;82.80
71978;DHT22;59848;48.158;11.512;2022-08-19T04:49:06;19.30;82.80
71978;DHT22;59848;48.158;11.512;2022-08-19T04:51:34;19.50;82.30
71978;DHT22;59848;48.158;11.512;2022-08-19T04:54:03;19.50;81.90
71978;DHT22;59848;48.158;11.512;2022-08-19T04:56:29;19.60;81.70
71978;DHT22;59848;48.158;11.512;2022-08-19T04:58:55;19.70;81.70
71978;DHT22;59848;48.158;11.512;2022-08-19T05:01:27;19.70;81.40
71978;DHT22;59848;48.158;11.512;2022-08-19T05:03:58;19.70;81.50
71978;DHT22;59848;48.158;11.512;2022-08-19T05:06:24;19.70;81.30
71978;DHT22;59848;48.158;11.512;2022-08-19T05:08:51;19.70;81.00
71978;DHT22;59848;48.158;11.512;2022-08-19T05:11:19;19.80;81.10
71978;DHT22;59848;48.158;11.512;2022-08-19T05:13:46;19.70;80.80
71978;DHT22;59848;48.158;11.512;2022-08-19T05:16:13;19.80;80.80
71978;DHT22;59848;48.158;11.512;2022-08-19T05:18:39;19.70;80.70
71978;DHT22;59848;48.158;11.512;2022-08-19T05:21:24;19.70;80.80
71978;DHT22;59848;48.158;11.512;2022-08-19T05:24:09;19.70;81.30
71978;DHT22;59848;48.158;11.512;2022-08-19T05:26:40;19.70;81.20
71978;DHT22;59848;48.158;11.512;2022-08-19T05:29:07;19.70;81.20
71978;DHT22;59848;48.158;11.512;2022-08-19T05:31:34;19.70;80.50
71978;DHT22;59848;48.158;11.512;2022-08-19T05:34:01;19.70;81.00
71978;DHT22;59848;48.158;11.512;2022-08-19T05:36:27;19.70;80.90
71978;DHT22;59848;48.158;11.512;2022-08-19T05:38:54;19.70;81.20
71978;DHT22;59848;48.158;11.512;2022-08-19T05:41:21;19.60;81.60
71978;DHT22;59848;48.158;11.512;2022-08-19T05:43:48;19.70;81.10
71978;DHT22;59848;48.158;11.512;2022-08-19T05:46:19;19.70;80.90
71978;DHT22;59848;48.158;11.512;2022-08-19T05:48:45;19.70;81.30
71978;DHT22;59848;48.158;11.512;2022-08-19T05:51:12;19.80;80.80
71978;DHT22;59848;48.158;11.512;2022-08-19T05:53:38;19.80;80.50
71978;DHT22;59848;48.158;11.512;2022-08-19T05:56:05;19.70;80.80
71978;DHT22;59848;48.158;11.512;2022-08-19T05:58:32;19.80;80.70
71978;DHT22;59848;48.158;11.512;2022-08-19T06:00:58;19.90;80.70
71978;DHT22;59848;48.158;11.512;2022-08-19T06:03:30;19.90;80.10
71978;DHT22;59848;48.158;11.512;2022-08-19T06:05:55;19.90;80.20
71978;DHT22;59848;48.158;11.512;2022-08-19T06:08:21;20.00;80.40
71978;DHT22;59848;48.158;11.512;2022-08-19T06:10:46;19.90;80.20
71978;DHT22;59848;48.158;11.512;2022-08-19T06:13:12;19.90;80.40
71978;DHT22;59848;48.158;11.512;2022-08-19T06:15:37;20.10;80.20
71978;DHT22;59848;48.158;11.512;2022-08-19T06:18:03;19.70;80.50
71978;DHT22;59848;48.158;11.512;2022-08-19T06:20:28;19.70;80.80
71978;DHT22;59848;48.158;11.512;2022-08-19T06:22:54;19.70;81.10
71978;DHT22;59848;48.158;11.512;2022-08-19T06:25:20;19.70;80.80
71978;DHT22;59848;48.158;11.512;2022-08-19T06:27:46;19.70;80.90
71978;DHT22;59848;48.158;11.512;2022-08-19T06:30:12;19.80;81.00
71978;DHT22;59848;48.158;11.512;2022-08-19T06:32:38;19.70;80.50
71978;DHT22;59848;48.158;11.512;2022-08-19T06:35:03;19.70;81.30
71978;DHT22;59848;48.158;11.512;2022-08-19T06:37:29;19.80;81.40
71978;DHT22;59848;48.158;11.512;2022-08-19T06:39:55;19.70;81.50
71978;DHT22;59848;48.158;11.512;2022-08-19T06:42:20;19.70;81.60
71978;DHT22;59848;48.158;11.512;2022-08-19T06:44:47;19.80;81.90
71978;DHT22;59848;48.158;11.512;2022-08-19T06:47:17;19.80;81.80
71978;DHT22;59848;48.158;11.512;2022-08-19T06:49:43;19.70;82.80
71978;DHT22;59848;48.158;11.512;2022-08-19T06:52:10;19.70;82.50
71978;DHT22;59848;48.158;11.512;2022-08-19T06:54:40;19.50;83.30
71978;DHT22;59848;48.158;11.512;2022-08-19T06:57:07;19.60;83.20
71978;DHT22;59848;48.158;11.512;2022-08-19T06:59:34;19.60;83.00
71978;DHT22;59848;48.158;11.512;2022-08-19T07:02:03;19.70;82.80
71978;DHT22;59848;48.158;11.512;2022-08-19T07:04:33;19.70;82.70
71978;DHT22;59848;48.158;11.512;2022-08-19T07:07:03;19.90;83.10
71978;DHT22;59848;48.158;11.512;2022-08-19T07:09:31;20.10;82.70
71978;DHT22;59848;48.158;11.512;2022-08-19T07:11:57;20.10;81.90
71978;DHT22;59848;48.158;11.512;2022-08-19T07:14:26;20.20;82.30
71978;DHT22;59848;48.158;11.512;2022-08-19T07:16:54;20.20;81.80
71978;DHT22;59848;48.158;11.512;2022-08-19T07:19:20;20.30;81.40
71978;DHT22;59848;48.158;11.512;2022-08-19T07:21:47;20.30;81.40
71978;DHT22;59848;48.158;11.512;2022-08-19T07:24:15;20.30;81.40
71978;DHT22;59848;48.158;11.512;2022-08-19T07:26:42;20.40;80.50
71978;DHT22;59848;48.158;11.512;2022-08-19T07:29:09;20.70;81.50
71978;DHT22;59848;48.158;11.512;2022-08-19T07:31:35;20.70;80.60
71978;DHT22;59848;48.158;11.512;2022-08-19T07:34:07;20.70;79.20
71978;DHT22;59848;48.158;11.512;2022-08-19T07:36:38;20.90;80.80
71978;DHT22;59848;48.158;11.512;2022-08-19T07:39:10;21.20;79.00
71978;DHT22;59848;48.158;11.512;2022-08-19T07:41:36;21.30;77.70
71978;DHT22;59848;48.158;11.512;2022-08-19T07:44:03;21.40;77.90
71978;DHT22;59848;48.158;11.512;2022-08-19T07:46:36;21.50;78.20
71978;DHT22;59848;48.158;11.512;2022-08-19T07:49:03;21.40;77.90
71978;DHT22;59848;48.158;11.512;2022-08-19T07:51:29;21.30;77.60
71978;DHT22;59848;48.158;11.512;2022-08-19T07:53:54;21.20;78.40
71978;DHT22;59848;48.158;11.512;2022-08-19T07:56:21;21.20;78.30
71978;DHT22;59848;48.158;11.512;2022-08-19T07:58:49;20.90;78.60
71978;DHT22;59848;48.158;11.512;2022-08-19T08:01:18;20.90;79.50
71978;DHT22;59848;48.158;11.512;2022-08-19T08:03:44;20.90;80.10
71978;DHT22;59848;48.158;11.512;2022-08-19T08:06:29;20.90;79.30
71978;DHT22;59848;48.158;11.512;2022-08-19T08:09:14;20.90;79.80
71978;DHT22;59848;48.158;11.512;2022-08-19T08:11:54;20.90;78.90
71978;DHT22;59848;48.158;11.512;2022-08-19T08:14:31;20.70;79.70
71978;DHT22;59848;48.158;11.512;2022-08-19T08:16:57;20.70;80.20
71978;DHT22;59848;48.158;11.512;2022-08-19T08:19:25;20.80;79.20
71978;DHT22;59848;48.158;11.512;2022-08-19T08:21:51;20.80;79.60
71978;DHT22;59848;48.158;11.512;2022-08-19T08:24:17;20.50;79.20
71978;DHT22;59848;48.158;11.512;2022-08-19T08:26:43;20.30;80.50
71978;DHT22;59848;48.158;11.512;2022-08-19T08:29:12;20.40;80.30
71978;DHT22;59848;48.158;11.512;2022-08-19T08:31:40;20.40;81.00
71978;DHT22;59848;48.158;11.512;2022-08-19T08:34:06;20.50;80.80
71978;DHT22;59848;48.158;11.512;2022-08-19T08:36:32;20.30;80.90
71978;DHT22;59848;48.158;11.512;2022-08-19T08:38:59;20.40;81.10
71978;DHT22;59848;48.158;11.512;2022-08-19T08:44:19;20.50;80.10
71978;DHT22;59848;48.158;11.512;2022-08-19T08:46:58;20.50;79.50
71978;DHT22;59848;48.158;11.512;2022-08-19T08:49:33;20.30;80.70
71978;DHT22;59848;48.158;11.512;2022-08-19T08:52:15;20.30;80.90
71978;DHT22;59848;48.158;11.512;2022-08-19T08:54:47;20.30;80.80
71978;DHT22;59848;48.158;11.512;2022-08-19T08:57:17;20.20;81.10
71978;DHT22;59848;48.158;11.512;2022-08-19T08:59:47;20.30;80.80
71978;DHT22;59848;48.158;11.512;2022-08-19T09:02:16;20.20;81.30
71978;DHT22;59848;48.158;11.512;2022-08-19T09:04:42;20.20;81.60
71978;DHT22;59848;48.158;11.512;2022-08-19T09:07:42;20.20;81.50
71978;DHT22;59848;48.158;11.512;2022-08-19T09:15:30;20.10;83.20
71978;DHT22;59848;48.158;11.512;2022-08-19T09:18:02;20.20;83.60
71978;DHT22;59848;48.158;11.512;2022-08-19T09:20:30;20.40;83.70
71978;DHT22;59848;48.158;11.512;2022-08-19T09:22:56;20.50;83.60
71978;DHT22;59848;48.158;11.512;2022-08-19T09:25:22;20.60;83.40
71978;DHT22;59848;48.158;11.512;2022-08-19T09:27:49;20.70;82.60
71978;DHT22;59848;48.158;11.512;2022-08-19T09:30:21;20.40;82.80
71978;DHT22;59848;48.158;11.512;2022-08-19T09:32:48;20.40;83.80
71978;DHT22;59848;48.158;11.512;2022-08-19T09:35:14;20.40;83.40
71978;DHT22;59848;48.158;11.512;2022-08-19T09:37:41;20.70;83.10
71978;DHT22;59848;48.158;11.512;2022-08-19T09:40:08;20.90;81.40
71978;DHT22;59848;48.158;11.512;2022-08-19T09:42:33;20.70;81.20
71978;DHT22;59848;48.158;11.512;2022-08-19T09:44:59;20.80;81.80
71978;DHT22;59848;48.158;11.512;2022-08-19T09:47:25;20.20;83.40
71978;DHT22;59848;48.158;11.512;2022-08-19T09:49:51;20.50;83.10
71978;DHT22;59848;48.158;11.512;2022-08-19T09:52:16;20.60;83.20
71978;DHT22;59848;48.158;11.512;2022-08-19T09:54:43;20.30;83.60
71978;DHT22;59848;48.158;11.512;2022-08-19T09:57:09;20.40;83.30
71978;DHT22;59848;48.158;11.512;2022-08-19T09:59:34;20.40;83.80
71978;DHT22;59848;48.158;11.512;2022-08-19T10:02:00;20.30;84.60
71978;DHT22;59848;48.158;11.512;2022-08-19T10:04:26;20.50;83.80
71978;DHT22;59848;48.158;11.512;2022-08-19T10:07:11;20.80;83.70
71978;DHT22;59848;48.158;11.512;2022-08-19T10:09:37;20.90;81.60
71978;DHT22;59848;48.158;11.512;2022-08-19T10:12:04;21.00;82.90
71978;DHT22;59848;48.158;11.512;2022-08-19T10:14:30;21.30;83.20
71978;DHT22;59848;48.158;11.512;2022-08-19T10:16:56;21.40;81.70
71978;DHT22;59848;48.158;11.512;2022-08-19T10:19:22;21.20;81.50
71978;DHT22;59848;48.158;11.512;2022-08-19T10:21:47;21.20;81.10
71978;DHT22;59848;48.158;11.512;2022-08-19T10:24:13;21.30;81.60
71978;DHT22;59848;48.158;11.512;2022-08-19T10:26:40;21.70;81.80
71978;DHT22;59848;48.158;11.512;2022-08-19T10:29:07;22.00;79.30
71978;DHT22;59848;48.158;11.512;2022-08-19T10:31:34;22.10;79.70
71978;DHT22;59848;48.158;11.512;2022-08-19T10:34:00;22.10;79.00
71978;DHT22;59848;48.158;11.512;2022-08-19T10:36:29;22.40;80.40
71978;DHT22;59848;48.158;11.512;2022-08-19T10:38:57;22.40;79.40
71978;DHT22;59848;48.158;11.512;2022-08-19T10:41:25;21.90;79.10
71978;DHT22;59848;48.158;11.512;2022-08-19T10:43:53;22.40;79.80
71978;DHT22;59848;48.158;11.512;2022-08-19T10:46:21;22.70;78.30
71978;DHT22;59848;48.158;11.512;2022-08-19T10:48:47;23.40;78.30
71978;DHT22;59848;48.158;11.512;2022-08-19T10:51:13;23.00;76.30
71978;DHT22;59848;48.158;11.512;2022-08-19T10:53:58;22.40;76.30
71978;DHT22;59848;48.158;11.512;2022-08-19T10:56:24;22.70;76.70
71978;DHT22;59848;48.158;11.512;2022-08-19T10:59:09;23.10;76.30
71978;DHT22;59848;48.158;11.512;2022-08-19T11:01:35;23.30;74.60
71978;DHT22;59848;48.158;11.512;2022-08-19T11:04:02;23.30;73.50
71978;DHT22;59848;48.158;11.512;2022-08-19T11:06:29;23.20;73.30
71978;DHT22;59848;48.158;11.512;2022-08-19T11:08:56;22.50;75.30
71978;DHT22;59848;48.158;11.512;2022-08-19T11:11:22;22.50;75.10
71978;DHT22;59848;48.158;11.512;2022-08-19T11:13:48;22.60;75.50
71978;DHT22;59848;48.158;11.512;2022-08-19T11:16:20;22.50;75.80
71978;DHT22;59848;48.158;11.512;2022-08-19T11:18:52;22.80;74.10
71978;DHT22;59848;48.158;11.512;2022-08-19T11:21:27;23.00;75.20
71978;DHT22;59848;48.158;11.512;2022-08-19T11:23:55;23.00;74.40
71978;DHT22;59848;48.158;11.512;2022-08-19T11:26:22;22.70;73.40
71978;DHT22;59848;48.158;11.512;2022-08-19T11:28:48;23.00;76.20
71978;DHT22;59848;48.158;11.512;2022-08-19T11:31:35;22.40;75.00
71978;DHT22;59848;48.158;11.512;2022-08-19T11:34:10;22.90;74.20
71978;DHT22;59848;48.158;11.512;2022-08-19T11:36:38;23.20;72.30
71978;DHT22;59848;48.158;11.512;2022-08-19T11:39:06;23.20;72.90
71978;DHT22;59848;48.158;11.512;2022-08-19T11:41:32;23.10;71.40
71978;DHT22;59848;48.158;11.512;2022-08-19T11:43:58;23.40;70.40
71978;DHT22;59848;48.158;11.512;2022-08-19T11:46:25;23.30;70.40
71978;DHT22;59848;48.158;11.512;2022-08-19T11:48:51;23.70;70.30
71978;DHT22;59848;48.158;11.512;2022-08-19T11:51:22;23.40;70.60
71978;DHT22;59848;48.158;11.512;2022-08-19T11:53:50;23.00;72.00
71978;DHT22;59848;48.158;11.512;2022-08-19T11:56:16;22.60;72.00
71978;DHT22;59848;48.158;11.512;2022-08-19T11:58:42;22.20;74.00
71978;DHT22;59848;48.158;11.512;2022-08-19T12:01:09;22.20;74.80
71978;DHT22;59848;48.158;11.512;2022-08-19T12:03:37;22.40;73.90
71978;DHT22;59848;48.158;11.512;2022-08-19T12:06:05;21.70;75.30
71978;DHT22;59848;48.158;11.512;2022-08-19T12:08:30;21.80;74.60
71978;DHT22;59848;48.158;11.512;2022-08-19T12:10:56;21.80;75.90
71978;DHT22;59848;48.158;11.512;2022-08-19T12:13:22;21.50;76.00
71978;DHT22;59848;48.158;11.512;2022-08-19T12:15:47;21.70;76.50
71978;DHT22;59848;48.158;11.512;2022-08-19T12:18:13;21.80;74.70
71978;DHT22;59848;48.158;11.512;2022-08-19T12:20:41;22.20;75.10
71978;DHT22;59848;48.158;11.512;2022-08-19T12:23:08;22.40;74.20
71978;DHT22;59848;48.158;11.512;2022-08-19T12:25:35;22.20;74.50
71978;DHT22;59848;48.158;11.512;2022-08-19T12:28:01;22.60;74.40
71978;DHT22;59848;48.158;11.512;2022-08-19T12:30:27;22.80;72.80
71978;DHT22;59848;48.158;11.512;2022-08-19T12:32:53;22.70;72.80
71978;DHT22;59848;48.158;11.512;2022-08-19T12:35:19;22.80;71.20
71978;DHT22;59848;48.158;11.512;2022-08-19T12:37:46;22.90;71.00
71978;DHT22;59848;48.158;11.512;2022-08-19T12:40:13;22.50;72.80
71978;DHT22;59848;48.158;11.512;2022-08-19T12:42:39;22.80;72.00
71978;DHT22;59848;48.158;11.512;2022-08-19T12:45:08;23.40;70.20
71978;DHT22;59848;48.158;11.512;2022-08-19T12:47:34;23.70;68.60
71978;DHT22;59848;48.158;11.512;2022-08-19T12:50:00;24.20;67.70
71978;DHT22;59848;48.158;11.512;2022-08-19T12:52:27;25.20;65.50
71978;DHT22;59848;48.158;11.512;2022-08-19T12:54:54;25.70;59.60
71978;DHT22;59848;48.158;11.512;2022-08-19T12:57:22;24.90;62.30
71978;DHT22;59848;48.158;11.512;2022-08-19T12:59:52;24.80;63.40
71978;DHT22;59848;48.158;11.512;2022-08-19T13:02:19;24.70;63.50
71978;DHT22;59848;48.158;11.512;2022-08-19T13:04:45;24.30;64.60
71978;DHT22;59848;48.158;11.512;2022-08-19T13:07:11;24.20;65.50
71978;DHT22;59848;48.158;11.512;2022-08-19T13:09:37;23.60;66.40
71978;DHT22;59848;48.158;11.512;2022-08-19T13:12:03;23.80;66.30
71978;DHT22;59848;48.158;11.512;2022-08-19T13:14:33;24.30;64.80
71978;DHT22;59848;48.158;11.512;2022-08-19T13:16:59;25.00;64.00
71978;DHT22;59848;48.158;11.512;2022-08-19T13:19:25;24.90;62.10
71978;DHT22;59848;48.158;11.512;2022-08-19T13:21:51;25.20;62.10
71978;DHT22;59848;48.158;11.512;2022-08-19T13:24:18;25.30;61.00
71978;DHT22;59848;48.158;11.512;2022-08-19T13:26:43;25.10;62.00
71978;DHT22;59848;48.158;11.512;2022-08-19T13:29:09;25.00;62.80
71978;DHT22;59848;48.158;11.512;2022-08-19T13:31:53;25.30;62.50
71978;DHT22;59848;48.158;11.512;2022-08-19T13:34:37;24.60;64.10
71978;DHT22;59848;48.158;11.512;2022-08-19T13:37:03;24.10;66.10
71978;DHT22;59848;48.158;11.512;2022-08-19T13:39:33;24.20;66.00
71978;DHT22;59848;48.158;11.512;2022-08-19T13:41:59;24.20;65.30
71978;DHT22;59848;48.158;11.512;2022-08-19T13:44:25;23.80;66.20
71978;DHT22;59848;48.158;11.512;2022-08-19T13:46:51;23.40;68.10
71978;DHT22;59848;48.158;11.512;2022-08-19T13:49:19;23.70;67.40
71978;DHT22;59848;48.158;11.512;2022-08-19T13:51:45;23.50;68.30
71978;DHT22;59848;48.158;11.512;2022-08-19T13:54:11;23.40;68.00
71978;DHT22;59848;48.158;11.512;2022-08-19T13:56:42;23.10;69.10
71978;DHT22;59848;48.158;11.512;2022-08-19T13:59:08;23.00;70.10
71978;DHT22;59848;48.158;11.512;2022-08-19T14:01:34;23.10;69.10
71978;DHT22;59848;48.158;11.512;2022-08-19T14:04:00;23.80;67.80
71978;DHT22;59848;48.158;11.512;2022-08-19T14:06:26;24.10;66.90
71978;DHT22;59848;48.158;11.512;2022-08-19T14:08:52;24.20;65.20
71978;DHT22;59848;48.158;11.512;2022-08-19T14:11:18;24.60;64.20
71978;DHT22;59848;48.158;11.512;2022-08-19T14:13:43;24.70;63.90
71978;DHT22;59848;48.158;11.512;2022-08-19T14:16:11;25.00;63.30
71978;DHT22;59848;48.158;11.512;2022-08-19T14:18:38;25.30;62.00
71978;DHT22;59848;48.158;11.512;2022-08-19T14:21:05;25.00;62.00
71978;DHT22;59848;48.158;11.512;2022-08-19T14:23:32;25.10;61.90
71978;DHT22;59848;48.158;11.512;2022-08-19T14:26:09;24.20;64.10
71978;DHT22;59848;48.158;11.512;2022-08-19T14:28:35;23.60;66.80
71978;DHT22;59848;48.158;11.512;2022-08-19T14:31:00;24.20;65.40
71978;DHT22;59848;48.158;11.512;2022-08-19T14:33:26;24.70;63.80
71978;DHT22;59848;48.158;11.512;2022-08-19T14:35:51;25.10;62.00
71978;DHT22;59848;48.158;11.512;2022-08-19T14:38:18;24.70;63.50
71978;DHT22;59848;48.158;11.512;2022-08-19T14:40:44;23.90;65.80
71978;DHT22;59848;48.158;11.512;2022-08-19T14:43:09;23.70;67.00
71978;DHT22;59848;48.158;11.512;2022-08-19T14:45:38;23.50;67.20
71978;DHT22;59848;48.158;11.512;2022-08-19T14:48:05;23.20;68.40
71978;DHT22;59848;48.158;11.512;2022-08-19T14:50:31;23.20;68.60
71978;DHT22;59848;48.158;11.512;2022-08-19T14:53:07;23.40;68.30
71978;DHT22;59848;48.158;11.512;2022-08-19T14:55:33;24.40;65.30
71978;DHT22;59848;48.158;11.512;2022-08-19T14:57:59;25.10;62.70
71978;DHT22;59848;48.158;11.512;2022-08-19T15:00:26;24.40;63.50
71978;DHT22;59848;48.158;11.512;2022-08-19T15:02:51;23.60;66.40
71978;DHT22;59848;48.158;11.512;2022-08-19T15:05:18;23.70;66.70
71978;DHT22;59848;48.158;11.512;2022-08-19T15:07:44;23.60;66.70
71978;DHT22;59848;48.158;11.512;2022-08-19T15:10:12;23.70;66.00
71978;DHT22;59848;48.158;11.512;2022-08-19T15:12:39;23.60;66.00
71978;DHT22;59848;48.158;11.512;2022-08-19T15:15:11;23.50;66.90
71978;DHT22;59848;48.158;11.512;2022-08-19T15:17:43;23.30;66.50
71978;DHT22;59848;48.158;11.512;2022-08-19T15:20:11;22.80;68.40
71978;DHT22;59848;48.158;11.512;2022-08-19T15:22:38;22.20;71.60
71978;DHT22;59848;48.158;11.512;2022-08-19T15:25:05;21.70;75.40
71978;DHT22;59848;48.158;11.512;2022-08-19T15:27:31;21.00;78.80
71978;DHT22;59848;48.158;11.512;2022-08-19T15:29:57;20.40;82.10